createdAt,value
2018-09-19T00:00:09.981Z,3.60
2018-09-19T00:02:38.216Z,6.83
2018-09-19T00:05:06.413Z,3.50
2018-09-19T00:07:34.621Z,2.90
2018-09-19T00:10:03.177Z,3.27
2018-09-19T00:12:31.340Z,2.30
2018-09-19T00:14:59.552Z,2.40
2018-09-19T00:17:27.737Z,1.77
2018-09-19T00:19:55.958Z,2.37
2018-09-19T00:22:24.163Z,1.90
2018-09-19T00:24:52.332Z,2.43
2018-09-19T00:27:20.559Z,4.13
2018-09-19T00:29:48.765Z,4.87
2018-09-19T00:32:16.969Z,2.80
2018-09-19T00:34:45.147Z,2.67
2018-09-19T00:37:13.377Z,4.90
2018-09-19T00:39:41.566Z,2.50
2018-09-19T00:42:09.734Z,2.63
2018-09-19T00:44:37.978Z,3.07
2018-09-19T00:47:06.194Z,3.73
2018-09-19T00:49:34.417Z,2.20
2018-09-19T00:52:02.641Z,2.53
2018-09-19T00:54:30.849Z,3.20
2018-09-19T00:56:59.045Z,4.00
2018-09-19T00:59:27.203Z,4.80
2018-09-19T01:01:55.415Z,3.00
2018-09-19T01:04:23.646Z,2.60
2018-09-19T01:06:51.872Z,2.87
2018-09-19T01:09:20.079Z,3.40
2018-09-19T01:11:48.300Z,2.30
2018-09-19T01:14:16.504Z,3.10
2018-09-19T01:16:44.720Z,3.20
2018-09-19T01:19:12.930Z,3.50
2018-09-19T01:21:41.139Z,3.50
2018-09-19T01:24:09.295Z,3.43
2018-09-19T01:26:37.601Z,2.80
2018-09-19T01:29:05.930Z,7.53
2018-09-19T01:31:34.149Z,9.33
2018-09-19T01:34:02.366Z,4.53
2018-09-19T01:36:30.584Z,5.13
2018-09-19T01:38:58.802Z,3.73
2018-09-19T01:41:26.972Z,5.27
2018-09-19T01:43:55.188Z,4.97
2018-09-19T01:46:23.432Z,3.67
2018-09-19T01:48:51.615Z,3.80
2018-09-19T01:51:19.824Z,4.63
2018-09-19T01:53:47.993Z,6.30
2018-09-19T01:56:16.201Z,3.60
2018-09-19T01:58:44.414Z,4.03
2018-09-19T02:01:12.587Z,3.10
2018-09-19T02:03:40.863Z,4.50
2018-09-19T02:06:09.062Z,3.67
2018-09-19T02:08:37.268Z,3.30
2018-09-19T02:11:05.817Z,3.17
2018-09-19T02:13:33.990Z,3.60
2018-09-19T02:16:02.225Z,5.90
2018-09-19T02:18:30.408Z,6.60
2018-09-19T02:20:58.653Z,4.57
2018-09-19T02:23:26.802Z,4.07
2018-09-19T02:25:55.000Z,4.10
2018-09-19T02:28:23.352Z,3.20
2018-09-19T02:30:51.537Z,3.23
2018-09-19T02:33:19.772Z,3.20
2018-09-19T02:35:48.000Z,4.03
2018-09-19T02:38:16.201Z,3.10
2018-09-19T02:40:44.450Z,4.20
2018-09-19T02:43:12.717Z,3.23
2018-09-19T02:45:40.953Z,3.87
2018-09-19T02:48:09.121Z,9.40
2018-09-19T02:50:37.328Z,4.70
2018-09-19T02:53:05.837Z,5.33
2018-09-19T02:55:34.101Z,3.17
2018-09-19T02:58:02.303Z,3.53
2018-09-19T03:00:30.474Z,4.03
2018-09-19T03:02:58.692Z,3.50
2018-09-19T03:05:26.850Z,2.97
2018-09-19T03:07:55.063Z,3.80
2018-09-19T03:10:23.278Z,3.37
2018-09-19T03:12:51.453Z,3.60
2018-09-19T03:15:19.667Z,4.10
2018-09-19T03:17:47.921Z,7.53
2018-09-19T03:20:16.098Z,3.47
2018-09-19T03:22:44.266Z,5.30
2018-09-19T03:25:12.473Z,4.10
2018-09-19T03:27:40.682Z,6.10
2018-09-19T03:30:08.863Z,4.77
2018-09-19T03:32:37.062Z,4.77
2018-09-19T03:35:05.308Z,4.27
2018-09-19T03:37:33.500Z,4.53
2018-09-19T03:40:01.712Z,4.13
2018-09-19T03:42:29.886Z,3.90
2018-09-19T03:44:58.149Z,4.80
2018-09-19T03:47:26.311Z,4.67
2018-09-19T03:49:54.544Z,4.63
2018-09-19T03:52:22.702Z,4.60
2018-09-19T03:54:50.896Z,4.27
2018-09-19T03:57:19.102Z,5.60
2018-09-19T03:59:47.270Z,3.47
2018-09-19T04:02:15.483Z,3.57
2018-09-19T04:04:43.652Z,4.13
2018-09-19T04:07:11.852Z,6.10
2018-09-19T04:09:40.050Z,3.20
2018-09-19T04:12:08.228Z,4.50
2018-09-19T04:14:36.429Z,4.43
2018-09-19T04:17:04.604Z,3.80
2018-09-19T04:19:32.861Z,7.93
2018-09-19T04:22:01.044Z,4.33
2018-09-19T04:24:29.228Z,4.67
2018-09-19T04:26:57.373Z,5.63
2018-09-19T04:29:25.609Z,4.40
2018-09-19T04:31:53.804Z,4.40
2018-09-19T04:34:22.040Z,4.17
2018-09-19T04:36:50.270Z,6.37
2018-09-19T04:39:18.463Z,4.47
2018-09-19T04:41:46.664Z,5.27
2018-09-19T04:44:14.936Z,4.30
2018-09-19T04:46:43.172Z,5.93
2018-09-19T04:49:11.421Z,3.93
2018-09-19T04:51:40.214Z,7.03
2018-09-19T04:54:08.802Z,4.67
2018-09-19T04:56:37.452Z,11.43
2018-09-19T04:59:05.775Z,5.07
2018-09-19T05:01:33.955Z,4.83
2018-09-19T05:04:02.187Z,4.30
2018-09-19T05:06:30.467Z,6.03
2018-09-19T05:08:58.959Z,5.93
2018-09-19T05:11:27.418Z,5.50
2018-09-19T05:13:56.163Z,5.00
2018-09-19T05:16:24.416Z,9.40
2018-09-19T05:18:52.597Z,7.83
2018-09-19T05:21:20.804Z,10.73
2018-09-19T05:23:49.344Z,5.07
2018-09-19T05:26:17.549Z,4.10
2018-09-19T05:28:45.790Z,4.10
2018-09-19T05:31:13.944Z,9.73
2018-09-19T05:33:42.166Z,4.80
2018-09-19T05:36:10.336Z,4.87
2018-09-19T05:38:38.550Z,7.53
2018-09-19T05:41:07.098Z,5.30
2018-09-19T05:43:35.276Z,12.97
2018-09-19T05:46:03.591Z,7.70
2018-09-19T05:48:31.830Z,6.23
2018-09-19T05:51:00.034Z,5.23
2018-09-19T05:53:28.497Z,5.27
2018-09-19T05:55:56.732Z,8.73
2018-09-19T05:58:25.021Z,5.27
2018-09-19T06:00:53.360Z,4.50
2018-09-19T06:03:21.595Z,4.20
2018-09-19T06:05:49.768Z,4.93
2018-09-19T06:08:18.069Z,4.67
2018-09-19T06:10:46.277Z,7.23
2018-09-19T06:13:14.500Z,7.80
2018-09-19T06:15:42.656Z,6.83
2018-09-19T06:18:10.828Z,10.87
2018-09-19T06:20:39.027Z,3.27
2018-09-19T06:23:07.209Z,8.53
2018-09-19T06:25:35.437Z,4.83
2018-09-19T06:28:03.727Z,4.10
2018-09-19T06:30:31.946Z,4.20
2018-09-19T06:33:00.306Z,3.70
2018-09-19T06:35:28.384Z,3.10
2018-09-19T06:37:56.616Z,4.70
2018-09-19T06:40:24.868Z,2.90
2018-09-19T06:42:53.213Z,3.10
2018-09-19T06:45:28.209Z,5.50
2018-09-19T06:47:56.468Z,3.07
2018-09-19T06:50:24.698Z,5.20
2018-09-19T06:52:52.856Z,5.03
2018-09-19T06:55:21.069Z,3.73
2018-09-19T06:57:49.244Z,4.23
2018-09-19T07:00:17.464Z,4.20
2018-09-19T07:02:45.693Z,3.73
2018-09-19T07:05:13.856Z,5.53
2018-09-19T07:07:42.043Z,7.40
2018-09-19T07:10:10.208Z,5.97
2018-09-19T07:12:38.404Z,10.23
2018-09-19T07:15:06.621Z,4.57
2018-09-19T07:17:34.773Z,6.10
2018-09-19T07:20:03.057Z,4.27
2018-09-19T07:22:31.222Z,3.60
2018-09-19T07:24:59.423Z,3.50
2018-09-19T07:27:27.682Z,7.73
2018-09-19T07:29:55.853Z,5.33
2018-09-19T07:32:24.049Z,4.07
2018-09-19T07:34:52.267Z,5.00
2018-09-19T07:37:20.489Z,4.30
2018-09-19T07:39:48.799Z,5.57
2018-09-19T07:42:17.001Z,4.20
2018-09-19T07:44:45.215Z,7.97
2018-09-19T07:47:13.423Z,4.83
2018-09-19T07:49:41.669Z,8.90
2018-09-19T07:52:09.840Z,6.60
2018-09-19T07:54:38.082Z,4.60
2018-09-19T07:57:06.385Z,6.07
2018-09-19T07:59:34.787Z,4.40
2018-09-19T08:02:03.108Z,3.80
2018-09-19T08:04:31.313Z,6.47
2018-09-19T08:06:59.565Z,4.40
2018-09-19T08:09:27.734Z,6.10
2018-09-19T08:11:56.013Z,9.27
2018-09-19T08:14:24.163Z,3.97
2018-09-19T08:16:52.436Z,6.63
2018-09-19T08:19:20.608Z,4.30
2018-09-19T08:21:48.817Z,6.07
2018-09-19T08:24:17.026Z,8.53
2018-09-19T08:26:45.229Z,6.53
2018-09-19T08:29:13.489Z,4.70
2018-09-19T08:31:41.686Z,4.80
2018-09-19T08:34:09.868Z,6.83
2018-09-19T08:36:38.084Z,7.40
2018-09-19T08:39:07.797Z,5.67
2018-09-19T08:41:35.992Z,5.77
2018-09-19T08:44:04.204Z,5.73
2018-09-19T08:46:32.497Z,7.20
2018-09-19T08:49:00.724Z,5.37
2018-09-19T08:51:28.887Z,6.53
2018-09-19T08:53:57.080Z,5.47
2018-09-19T08:56:25.280Z,5.80
2018-09-19T08:58:53.490Z,5.27
2018-09-19T09:01:21.692Z,6.60
2018-09-19T09:03:49.860Z,5.20
2018-09-19T09:06:18.053Z,5.50
2018-09-19T09:08:46.327Z,8.33
2018-09-19T09:11:14.528Z,7.60
2018-09-19T09:13:42.733Z,6.73
2018-09-19T09:16:10.889Z,8.03
2018-09-19T09:18:39.125Z,6.40
2018-09-19T09:21:07.415Z,5.47
2018-09-19T09:23:35.622Z,7.57
2018-09-19T09:26:03.848Z,6.17
2018-09-19T09:28:32.020Z,5.93
2018-09-19T09:31:00.315Z,6.73
2018-09-19T09:33:28.467Z,7.20
2018-09-19T09:35:56.661Z,7.33
2018-09-19T09:38:24.835Z,6.20
2018-09-19T09:40:53.034Z,5.80
2018-09-19T09:43:21.283Z,6.10
2018-09-19T09:45:49.836Z,5.00
2018-09-19T09:48:18.064Z,5.90
2018-09-19T09:50:46.297Z,7.70
2018-09-19T09:53:14.508Z,7.00
2018-09-19T09:55:42.745Z,5.90
2018-09-19T09:58:10.945Z,9.40
2018-09-19T10:00:40.813Z,5.83
2018-09-19T10:03:09.945Z,6.00
2018-09-19T10:05:38.535Z,6.43
2018-09-19T10:08:06.962Z,6.20
2018-09-19T10:10:35.543Z,5.83
2018-09-19T10:13:04.102Z,8.73
2018-09-19T10:15:32.317Z,5.17
2018-09-19T10:18:00.493Z,5.73
2018-09-19T10:20:28.745Z,6.93
2018-09-19T10:22:56.999Z,8.60
2018-09-19T10:25:25.429Z,7.00
2018-09-19T10:27:53.668Z,6.73
2018-09-19T10:30:21.849Z,7.50
2018-09-19T10:32:50.047Z,23.03
2018-09-19T10:35:18.290Z,7.90
2018-09-19T10:37:46.528Z,9.00
2018-09-19T10:40:14.750Z,6.60
2018-09-19T10:42:43.112Z,8.30
2018-09-19T10:45:11.334Z,9.83
2018-09-19T10:47:39.512Z,6.50
2018-09-19T10:50:07.761Z,13.43
2018-09-19T10:52:35.994Z,8.60
2018-09-19T10:55:04.260Z,8.53
2018-09-19T10:57:32.461Z,10.80
2018-09-19T11:00:00.952Z,11.13
2018-09-19T11:02:29.166Z,10.87
2018-09-19T11:04:57.339Z,14.93
2018-09-19T11:07:25.565Z,8.27
2018-09-19T11:09:53.748Z,9.07
2018-09-19T11:12:21.940Z,9.27
2018-09-19T11:14:50.125Z,21.40
2018-09-19T11:17:18.319Z,10.43
2018-09-19T11:19:46.519Z,7.80
2018-09-19T11:22:14.733Z,19.23
2018-09-19T11:24:42.904Z,11.83
2018-09-19T11:27:11.141Z,7.13
2018-09-19T11:29:39.330Z,7.47
2018-09-19T11:32:07.516Z,10.93
2018-09-19T11:34:35.721Z,8.23
2018-09-19T11:37:03.916Z,8.93
2018-09-19T11:39:32.108Z,7.53
2018-09-19T11:42:00.316Z,8.13
2018-09-19T11:44:28.526Z,7.57
2018-09-19T11:46:56.729Z,10.70
2018-09-19T11:49:24.978Z,9.50
2018-09-19T11:51:53.272Z,11.83
2018-09-19T11:54:21.457Z,6.93
2018-09-19T11:56:49.689Z,8.10
2018-09-19T11:59:17.857Z,10.27
2018-09-19T12:01:46.083Z,6.90
2018-09-19T12:04:14.283Z,7.07
2018-09-19T12:06:42.469Z,8.37
2018-09-19T12:09:12.209Z,9.43
2018-09-19T12:11:40.415Z,6.63
2018-09-19T12:14:08.741Z,7.43
2018-09-19T12:16:37.413Z,6.63
2018-09-19T12:19:06.079Z,6.23
2018-09-19T12:21:34.293Z,8.33
2018-09-19T12:24:02.721Z,10.70
2018-09-19T12:26:30.929Z,7.97
2018-09-19T12:28:59.189Z,8.37
2018-09-19T12:31:27.373Z,5.73
2018-09-19T12:33:55.585Z,6.73
2018-09-19T12:36:24.605Z,5.33
2018-09-19T12:38:52.805Z,7.20
2018-09-19T12:41:21.109Z,4.93
2018-09-19T12:43:49.545Z,4.57
2018-09-19T12:46:17.732Z,4.67
2018-09-19T12:48:45.880Z,4.30
2018-09-19T12:51:14.077Z,6.23
2018-09-19T12:53:42.312Z,7.93
2018-09-19T12:56:10.657Z,6.57
2018-09-19T12:58:39.036Z,5.00
2018-09-19T13:01:07.268Z,6.40
2018-09-19T13:03:35.460Z,3.63
2018-09-19T13:06:03.653Z,3.70
2018-09-19T13:08:31.896Z,4.07
2018-09-19T13:11:00.101Z,4.00
2018-09-19T13:13:28.285Z,5.00
2018-09-19T13:15:56.468Z,4.80
2018-09-19T13:18:24.642Z,4.70
2018-09-19T13:20:52.833Z,4.60
2018-09-19T13:23:21.024Z,4.00
2018-09-19T13:25:49.168Z,3.90
2018-09-19T13:28:17.446Z,4.90
2018-09-19T13:30:45.603Z,8.50
2018-09-19T13:33:13.788Z,6.03
2018-09-19T13:35:42.005Z,11.53
2018-09-19T13:38:10.165Z,4.20
2018-09-19T13:40:38.760Z,4.67
2018-09-19T13:43:07.065Z,8.80
2018-09-19T13:45:35.281Z,6.33
2018-09-19T13:48:03.525Z,4.90
2018-09-19T13:50:41.460Z,5.97
2018-09-19T13:53:09.937Z,6.80
2018-09-19T13:55:39.064Z,5.43
2018-09-19T13:58:07.252Z,7.30
2018-09-19T14:00:35.433Z,4.73
2018-09-19T14:03:03.656Z,4.97
2018-09-19T14:05:31.857Z,5.23
2018-09-19T14:08:00.033Z,4.70
2018-09-19T14:10:28.235Z,5.37
2018-09-19T14:12:56.389Z,8.20
2018-09-19T14:15:24.595Z,9.70
2018-09-19T14:17:52.789Z,7.90
2018-09-19T14:20:20.959Z,4.97
2018-09-19T14:22:49.166Z,10.17
2018-09-19T14:25:17.332Z,4.53
2018-09-19T14:27:45.521Z,7.13
2018-09-19T14:30:13.732Z,8.13
2018-09-19T14:32:41.965Z,9.63
2018-09-19T14:35:10.112Z,4.57
2018-09-19T14:37:38.288Z,4.53
2018-09-19T14:40:06.605Z,7.57
2018-09-19T14:42:35.096Z,5.60
2018-09-19T14:45:03.324Z,4.40
2018-09-19T14:47:31.508Z,4.43
2018-09-19T14:50:02.802Z,5.00
2018-09-19T14:52:31.012Z,6.40
2018-09-19T14:54:59.221Z,4.50
2018-09-19T14:57:27.372Z,4.30
2018-09-19T14:59:55.573Z,4.53
2018-09-19T15:02:24.460Z,4.53
2018-09-19T15:04:52.749Z,5.83
2018-09-19T15:07:20.929Z,4.50
2018-09-19T15:09:49.342Z,4.37
2018-09-19T15:12:17.533Z,6.53
2018-09-19T15:14:45.697Z,4.10
2018-09-19T15:17:13.917Z,3.87
2018-09-19T15:19:42.276Z,4.20
2018-09-19T15:22:10.508Z,3.97
2018-09-19T15:24:38.692Z,6.20
2018-09-19T15:27:07.217Z,8.40
2018-09-19T15:29:35.413Z,5.53
2018-09-19T15:32:03.593Z,7.07
2018-09-19T15:34:31.784Z,6.23
2018-09-19T15:36:59.954Z,3.30
2018-09-19T15:39:28.149Z,8.70
2018-09-19T15:41:56.325Z,5.37
2018-09-19T15:44:24.588Z,3.30
2018-09-19T15:46:52.761Z,5.17
2018-09-19T15:49:20.920Z,3.10
2018-09-19T15:51:49.116Z,3.37
2018-09-19T15:54:17.340Z,3.07
2018-09-19T15:56:45.553Z,5.77
2018-09-19T15:59:13.758Z,9.30
2018-09-19T16:01:41.939Z,3.97
2018-09-19T16:04:10.148Z,4.83
2018-09-19T16:06:38.309Z,3.97
2018-09-19T16:09:08.873Z,3.53
2018-09-19T16:11:37.056Z,2.93
2018-09-19T16:14:05.284Z,5.43
2018-09-19T16:16:33.500Z,3.83
2018-09-19T16:19:01.681Z,5.13
2018-09-19T16:21:29.893Z,4.00
2018-09-19T16:23:58.103Z,4.17
2018-09-19T16:26:26.285Z,3.90
2018-09-19T16:28:54.625Z,5.43
2018-09-19T16:31:22.804Z,4.87
2018-09-19T16:33:51.005Z,4.60
2018-09-19T16:36:19.229Z,7.57
2018-09-19T16:38:47.394Z,6.63
2018-09-19T16:41:15.614Z,4.50
2018-09-19T16:43:43.791Z,4.20
2018-09-19T16:46:11.985Z,8.20
2018-09-19T16:48:40.177Z,4.53
2018-09-19T16:51:08.873Z,4.47
2018-09-19T16:53:37.106Z,7.63
2018-09-19T16:56:05.313Z,4.77
2018-09-19T16:58:34.517Z,5.67
2018-09-19T17:01:02.732Z,4.63
2018-09-19T17:03:30.892Z,4.80
2018-09-19T17:05:59.161Z,7.60
2018-09-19T17:08:27.333Z,5.43
2018-09-19T17:10:55.549Z,5.67
2018-09-19T17:13:23.740Z,4.43
2018-09-19T17:15:52.138Z,4.47
2018-09-19T17:18:20.408Z,5.23
2018-09-19T17:20:48.659Z,6.83
2018-09-19T17:23:16.853Z,12.53
2018-09-19T17:25:45.049Z,21.93
2018-09-19T17:28:13.269Z,11.13
2018-09-19T17:30:41.502Z,14.73
2018-09-19T17:33:09.690Z,10.80
2018-09-19T17:35:37.937Z,9.67
2018-09-19T17:38:06.241Z,8.47
2018-09-19T17:40:34.433Z,6.60
2018-09-19T17:43:02.653Z,6.77
2018-09-19T17:45:30.901Z,4.43
2018-09-19T17:47:59.119Z,5.83
2018-09-19T17:50:27.409Z,5.27
2018-09-19T17:52:56.280Z,6.70
2018-09-19T17:55:25.010Z,6.40
2018-09-19T17:57:53.257Z,7.30
2018-09-19T18:00:21.644Z,6.87
2018-09-19T18:02:51.693Z,5.87
2018-09-19T18:05:20.495Z,5.60
2018-09-19T18:07:48.689Z,8.77
2018-09-19T18:10:16.921Z,5.70
2018-09-19T18:12:45.122Z,6.30
2018-09-19T18:15:13.497Z,5.00
2018-09-19T18:17:41.726Z,5.73
2018-09-19T18:20:10.424Z,7.93
2018-09-19T18:22:39.625Z,8.80
2018-09-19T18:25:08.589Z,8.83
2018-09-19T18:27:36.809Z,11.23
2018-09-19T18:30:06.061Z,8.90
2018-09-19T18:32:34.283Z,6.97
2018-09-19T18:35:02.733Z,6.03
2018-09-19T18:37:31.853Z,8.40
2018-09-19T18:40:01.371Z,6.20
2018-09-19T18:42:30.198Z,5.90
2018-09-19T18:44:58.422Z,8.00
2018-09-19T18:47:26.602Z,7.17
2018-09-19T18:49:54.984Z,9.10
2018-09-19T18:52:23.233Z,10.17
2018-09-19T18:54:51.457Z,7.47
2018-09-19T18:57:19.673Z,6.30
2018-09-19T18:59:48.641Z,13.37
2018-09-19T19:02:18.318Z,7.40
2018-09-19T19:04:46.493Z,8.53
2018-09-19T19:07:17.260Z,6.23
2018-09-19T19:09:46.225Z,6.63
2018-09-19T19:12:15.373Z,8.40
2018-09-19T19:14:43.629Z,9.67
2018-09-19T19:17:11.797Z,9.87
2018-09-19T19:19:40.273Z,7.73
2018-09-19T19:22:08.745Z,8.00
2018-09-19T19:24:37.009Z,12.60
2018-09-19T19:27:05.886Z,8.50
2018-09-19T19:29:34.485Z,8.77
2018-09-19T19:32:02.752Z,11.10
2018-09-19T19:34:30.913Z,9.23
2018-09-19T19:36:59.101Z,12.73
2018-09-19T19:39:27.277Z,10.83
2018-09-19T19:41:55.479Z,9.70
2018-09-19T19:44:23.773Z,9.03
2018-09-19T19:46:52.346Z,10.70
2018-09-19T19:49:20.622Z,10.23
2018-09-19T19:51:48.806Z,8.60
2018-09-19T19:54:17.009Z,13.23
2018-09-19T19:56:45.236Z,9.00
2018-09-19T19:59:13.427Z,9.40
2018-09-19T20:01:41.645Z,7.97
2018-09-19T20:04:09.878Z,10.57
2018-09-19T20:06:38.281Z,8.07
2018-09-19T20:09:08.033Z,10.87
2018-09-19T20:11:36.444Z,7.83
2018-09-19T20:14:04.697Z,8.87
2018-09-19T20:16:32.869Z,7.50
2018-09-19T20:19:01.477Z,12.27
2018-09-19T20:21:29.624Z,17.70
2018-09-19T20:23:58.380Z,10.20
2018-09-19T20:26:26.584Z,10.40
2018-09-19T20:28:54.753Z,9.53
2018-09-19T20:31:22.941Z,10.80
2018-09-19T20:33:51.236Z,12.70
2018-09-19T20:36:20.817Z,9.93
2018-09-19T20:38:49.017Z,16.63
2018-09-19T20:41:17.247Z,10.83
2018-09-19T20:43:45.420Z,8.70
2018-09-19T20:46:13.585Z,10.47
2018-09-19T20:48:41.768Z,9.17
2018-09-19T20:51:09.997Z,10.00
2018-09-19T20:53:38.246Z,9.50
2018-09-19T20:56:06.553Z,11.50
2018-09-19T20:58:34.693Z,15.03
2018-09-19T21:01:02.965Z,10.10
2018-09-19T21:03:31.096Z,10.67
2018-09-19T21:06:06.325Z,9.10
2018-09-19T21:08:34.797Z,14.57
2018-09-19T21:11:03.248Z,10.03
2018-09-19T21:13:31.468Z,11.53
2018-09-19T21:15:59.600Z,9.23
2018-09-19T21:18:27.800Z,11.83
2018-09-19T21:20:55.966Z,15.40
2018-09-19T21:23:24.125Z,9.73
2018-09-19T21:25:52.318Z,9.60
2018-09-19T21:28:20.533Z,18.80
2018-09-19T21:30:48.697Z,12.07
2018-09-19T21:33:17.209Z,14.13
2018-09-19T21:35:45.392Z,9.97
2018-09-19T21:38:13.624Z,14.53
2018-09-19T21:40:41.833Z,18.50
2018-09-19T21:43:10.063Z,11.17
2018-09-19T21:45:38.286Z,20.07
2018-09-19T21:48:06.464Z,8.90
2018-09-19T21:50:34.681Z,9.33
2018-09-19T21:53:02.882Z,13.70
2018-09-19T21:55:31.161Z,12.97
2018-09-19T21:57:59.434Z,17.53
2018-09-19T22:00:27.637Z,10.47
2018-09-19T22:02:55.950Z,11.83
2018-09-19T22:05:24.130Z,19.60
2018-09-19T22:07:52.337Z,17.40
2018-09-19T22:10:20.549Z,12.07
2018-09-19T22:12:48.720Z,12.97
2018-09-19T22:15:16.921Z,11.33
2018-09-19T22:17:45.272Z,11.00
2018-09-19T22:20:13.669Z,11.43
2018-09-19T22:22:41.889Z,15.53
2018-09-19T22:25:10.140Z,15.30
2018-09-19T22:27:38.434Z,10.43
2018-09-19T22:30:06.614Z,12.03
2018-09-19T22:32:34.871Z,9.10
2018-09-19T22:35:03.110Z,11.97
2018-09-19T22:37:31.302Z,10.60
2018-09-19T22:39:59.573Z,9.53
2018-09-19T22:42:27.769Z,8.50
2018-09-19T22:44:55.993Z,8.03
2018-09-19T22:47:24.237Z,8.77
2018-09-19T22:49:52.643Z,8.40
2018-09-19T22:52:20.848Z,8.37
2018-09-19T22:54:49.029Z,9.40
2018-09-19T22:57:17.220Z,13.57
2018-09-19T22:59:45.449Z,9.77
2018-09-19T23:02:13.615Z,14.63
2018-09-19T23:04:41.834Z,8.70
2018-09-19T23:07:09.997Z,8.93
2018-09-19T23:09:38.192Z,12.00
2018-09-19T23:12:06.529Z,15.83
2018-09-19T23:14:34.710Z,8.33
2018-09-19T23:17:02.930Z,8.87
2018-09-19T23:19:31.097Z,16.73
2018-09-19T23:21:59.304Z,13.33
2018-09-19T23:24:27.452Z,8.43
2018-09-19T23:26:55.640Z,8.23
2018-09-19T23:29:23.865Z,9.47
2018-09-19T23:31:52.033Z,9.33
2018-09-19T23:34:20.223Z,12.53
2018-09-19T23:36:48.391Z,7.20
2018-09-19T23:39:16.588Z,11.73
2018-09-19T23:41:44.757Z,7.90
2018-09-19T23:44:12.957Z,11.47
2018-09-19T23:46:41.248Z,7.57
2018-09-19T23:49:09.417Z,10.30
2018-09-19T23:51:37.640Z,12.93
2018-09-19T23:54:06.392Z,11.10
2018-09-19T23:56:34.596Z,9.40
2018-09-19T23:59:02.798Z,8.73
